createdAt,value
2019-03-31T00:00:01.550Z,206.83
2019-03-31T00:02:31.234Z,209.10
2019-03-31T00:05:01.095Z,206.13
2019-03-31T00:07:30.882Z,223.83
2019-03-31T00:10:00.557Z,221.53
2019-03-31T00:12:30.288Z,219.30
2019-03-31T00:15:00.789Z,225.13
2019-03-31T00:17:30.525Z,221.63
2019-03-31T00:20:00.374Z,232.40
2019-03-31T00:22:30.173Z,248.87
2019-03-31T00:24:59.832Z,237.70
2019-03-31T00:27:29.689Z,228.20
2019-03-31T00:29:59.353Z,248.57
2019-03-31T00:32:32.283Z,258.50
2019-03-31T00:35:02.287Z,244.53
2019-03-31T00:37:32.174Z,260.47
2019-03-31T00:40:01.815Z,254.73
2019-03-31T00:42:31.497Z,252.70
2019-03-31T00:45:01.582Z,256.30
2019-03-31T00:47:31.257Z,264.33
2019-03-31T00:50:00.946Z,266.77
2019-03-31T00:52:30.654Z,252.60
2019-03-31T00:55:00.474Z,250.47
2019-03-31T00:57:30.316Z,265.03
2019-03-31T01:00:00.036Z,257.27
2019-03-31T01:02:32.206Z,263.30
2019-03-31T01:05:06.087Z,269.50
2019-03-31T01:07:38.090Z,256.80
2019-03-31T01:10:09.171Z,254.93
2019-03-31T01:12:39.882Z,258.93
2019-03-31T01:15:16.008Z,254.37
2019-03-31T01:17:46.164Z,259.00
2019-03-31T01:20:15.804Z,258.83
2019-03-31T01:22:45.815Z,259.77
2019-03-31T01:25:18.235Z,251.23
2019-03-31T01:27:47.871Z,241.60
2019-03-31T01:30:19.317Z,232.37
2019-03-31T01:32:49.189Z,238.27
2019-03-31T01:35:19.794Z,212.40
2019-03-31T01:37:52.108Z,213.83
2019-03-31T01:40:29.041Z,224.17
2019-03-31T01:42:59.181Z,223.87
2019-03-31T01:45:28.935Z,209.00
2019-03-31T01:47:58.723Z,223.13
2019-03-31T01:50:30.211Z,208.63
2019-03-31T01:52:59.919Z,218.40
2019-03-31T01:55:31.860Z,222.90
2019-03-31T01:58:01.564Z,212.03
2019-03-31T02:00:37.846Z,217.50
2019-03-31T02:03:07.516Z,200.87
2019-03-31T02:05:39.480Z,205.43
2019-03-31T02:08:10.715Z,209.60
2019-03-31T02:10:40.296Z,209.03
2019-03-31T02:13:13.106Z,225.43
2019-03-31T02:15:45.155Z,209.90
2019-03-31T02:18:15.456Z,214.00
2019-03-31T02:20:46.920Z,223.97
2019-03-31T02:23:16.654Z,202.67
2019-03-31T02:25:46.310Z,205.50
2019-03-31T02:28:16.002Z,188.33
2019-03-31T02:30:46.621Z,186.93
2019-03-31T02:33:16.630Z,199.33
2019-03-31T02:35:47.631Z,171.43
2019-03-31T02:38:19.400Z,196.77
2019-03-31T02:40:49.085Z,186.43
2019-03-31T02:43:19.669Z,181.40
2019-03-31T02:45:52.447Z,170.23
2019-03-31T02:48:22.096Z,158.93
2019-03-31T02:50:52.449Z,169.83
2019-03-31T02:53:22.520Z,170.43
2019-03-31T02:55:53.576Z,160.03
2019-03-31T02:58:23.314Z,171.63
2019-03-31T03:00:53.901Z,170.80
2019-03-31T03:03:23.584Z,183.07
2019-03-31T03:05:55.195Z,171.37
2019-03-31T03:08:26.839Z,176.37
2019-03-31T03:11:00.893Z,162.97
2019-03-31T03:13:34.899Z,150.77
2019-03-31T03:16:18.557Z,151.80
2019-03-31T03:18:49.386Z,150.83
2019-03-31T03:21:23.724Z,145.70
2019-03-31T03:23:51.934Z,142.83
2019-03-31T03:26:21.866Z,142.07
2019-03-31T03:28:52.243Z,144.93
2019-03-31T03:31:22.012Z,133.27
2019-03-31T03:33:53.552Z,126.60
2019-03-31T03:36:23.466Z,126.27
2019-03-31T03:38:53.118Z,125.77
2019-03-31T03:41:22.718Z,121.17
2019-03-31T03:43:56.344Z,110.07
2019-03-31T03:46:24.475Z,119.20
2019-03-31T03:48:54.218Z,123.63
2019-03-31T03:51:23.946Z,123.80
2019-03-31T03:53:55.083Z,119.07
2019-03-31T03:56:28.905Z,126.80
2019-03-31T03:58:56.578Z,126.03
2019-03-31T04:01:30.514Z,114.37
2019-03-31T04:04:00.270Z,124.70
2019-03-31T04:06:30.578Z,98.73
2019-03-31T04:09:00.257Z,70.33
2019-03-31T04:11:30.740Z,66.87
2019-03-31T04:14:00.476Z,100.67
2019-03-31T04:16:30.151Z,70.43
2019-03-31T04:18:59.796Z,75.33
2019-03-31T04:21:29.713Z,75.90
2019-03-31T04:23:59.526Z,81.30
2019-03-31T04:26:29.239Z,88.77
2019-03-31T04:29:01.286Z,87.10
2019-03-31T04:31:31.338Z,90.40
2019-03-31T04:34:01.032Z,95.13
2019-03-31T04:36:32.032Z,99.50
2019-03-31T04:39:03.699Z,88.63
2019-03-31T04:41:33.450Z,88.07
2019-03-31T04:44:03.090Z,76.90
2019-03-31T04:46:32.640Z,74.10
2019-03-31T04:49:02.304Z,76.73
2019-03-31T04:51:31.962Z,83.07
2019-03-31T04:54:01.691Z,82.60
2019-03-31T04:56:31.627Z,87.53
2019-03-31T04:59:01.301Z,86.60
2019-03-31T05:01:30.984Z,82.50
2019-03-31T05:04:04.838Z,89.50
2019-03-31T05:06:34.071Z,72.60
2019-03-31T05:09:05.276Z,68.97
2019-03-31T05:11:34.974Z,68.07
2019-03-31T05:14:04.661Z,49.27
2019-03-31T05:16:34.475Z,60.13
2019-03-31T05:19:04.170Z,56.43
2019-03-31T05:21:35.220Z,52.30
2019-03-31T05:24:07.998Z,37.77
2019-03-31T05:26:37.849Z,53.60
2019-03-31T05:29:07.474Z,49.60
2019-03-31T05:31:39.141Z,53.20
2019-03-31T05:34:18.884Z,53.30
2019-03-31T05:36:43.273Z,40.13
2019-03-31T05:39:14.467Z,35.93
2019-03-31T05:41:46.200Z,51.57
2019-03-31T05:44:17.278Z,46.90
2019-03-31T05:46:46.940Z,39.50
2019-03-31T05:49:17.106Z,46.87
2019-03-31T05:51:49.213Z,34.33
2019-03-31T05:54:19.164Z,38.47
2019-03-31T05:56:48.900Z,42.93
2019-03-31T05:59:18.595Z,40.83
2019-03-31T06:01:48.282Z,49.33
2019-03-31T06:04:32.684Z,36.63
2019-03-31T06:06:51.210Z,50.00
2019-03-31T06:09:20.998Z,42.20
2019-03-31T06:11:53.425Z,46.43
2019-03-31T06:14:22.082Z,42.77
2019-03-31T06:16:54.549Z,36.33
2019-03-31T06:19:24.195Z,39.27
2019-03-31T06:21:53.990Z,35.33
2019-03-31T06:24:23.681Z,42.00
2019-03-31T06:26:53.824Z,40.93
2019-03-31T06:29:23.918Z,28.27
2019-03-31T06:31:53.579Z,34.00
2019-03-31T06:34:24.802Z,27.67
2019-03-31T06:36:54.611Z,32.13
2019-03-31T06:39:25.251Z,34.00
2019-03-31T06:41:54.899Z,25.63
2019-03-31T06:44:26.005Z,27.53
2019-03-31T06:46:56.243Z,22.70
2019-03-31T06:49:26.953Z,23.77
2019-03-31T06:51:57.263Z,26.70
2019-03-31T06:54:27.640Z,21.17
2019-03-31T06:56:59.530Z,29.50
2019-03-31T06:59:29.551Z,26.80
2019-03-31T07:02:02.740Z,28.60
2019-03-31T07:04:31.448Z,26.80
2019-03-31T07:07:02.087Z,25.90
2019-03-31T07:09:32.247Z,26.57
2019-03-31T07:12:01.985Z,30.60
2019-03-31T07:14:31.675Z,28.37
2019-03-31T07:17:01.380Z,35.07
2019-03-31T07:19:32.061Z,27.57
2019-03-31T07:22:02.592Z,32.87
2019-03-31T07:24:32.222Z,37.83
2019-03-31T07:27:02.726Z,32.97
2019-03-31T07:29:32.486Z,27.90
2019-03-31T07:32:02.580Z,28.53
2019-03-31T07:34:32.544Z,34.23
2019-03-31T07:37:02.264Z,33.00
2019-03-31T07:39:32.976Z,28.33
2019-03-31T07:42:03.095Z,30.63
2019-03-31T07:44:33.023Z,30.77
2019-03-31T07:47:02.655Z,30.47
2019-03-31T07:49:34.687Z,27.50
2019-03-31T07:52:06.449Z,26.33
2019-03-31T07:54:36.431Z,22.90
2019-03-31T07:57:07.143Z,22.03
2019-03-31T07:59:36.982Z,22.13
2019-03-31T08:02:06.875Z,23.07
2019-03-31T08:04:37.314Z,23.57
2019-03-31T08:07:06.965Z,21.60
2019-03-31T08:09:36.689Z,27.53
2019-03-31T08:12:06.352Z,25.17
2019-03-31T08:14:36.511Z,25.70
2019-03-31T08:17:06.605Z,20.23
2019-03-31T08:19:36.305Z,17.87
2019-03-31T08:22:06.037Z,25.17
2019-03-31T08:24:46.876Z,21.03
2019-03-31T08:27:16.910Z,25.23
2019-03-31T08:29:55.377Z,23.57
2019-03-31T08:32:18.315Z,17.27
2019-03-31T08:34:50.755Z,22.83
2019-03-31T08:37:21.900Z,22.27
2019-03-31T08:39:53.218Z,21.30
2019-03-31T08:42:22.879Z,19.80
2019-03-31T08:44:52.734Z,15.03
2019-03-31T08:47:22.415Z,20.23
2019-03-31T08:49:52.551Z,16.67
2019-03-31T08:52:22.215Z,17.37
2019-03-31T08:54:51.926Z,19.80
2019-03-31T08:57:21.756Z,16.10
2019-03-31T08:59:51.469Z,15.87
2019-03-31T09:02:26.602Z,18.77
2019-03-31T09:04:56.370Z,16.57
2019-03-31T09:07:26.106Z,16.73
2019-03-31T09:09:55.789Z,19.67
2019-03-31T09:12:25.453Z,16.27
2019-03-31T09:14:55.143Z,14.13
2019-03-31T09:17:24.958Z,18.00
2019-03-31T09:19:54.865Z,16.10
2019-03-31T09:22:25.792Z,14.03
2019-03-31T09:24:56.295Z,15.63
2019-03-31T09:27:26.958Z,18.67
2019-03-31T09:29:56.767Z,14.10
2019-03-31T09:32:26.810Z,15.33
2019-03-31T09:34:56.392Z,14.63
2019-03-31T09:37:26.140Z,14.47
2019-03-31T09:39:58.017Z,11.03
2019-03-31T09:42:27.672Z,11.13
2019-03-31T09:45:00.947Z,12.67
2019-03-31T09:47:30.590Z,10.73
2019-03-31T09:50:00.345Z,11.87
2019-03-31T09:52:32.549Z,10.13
2019-03-31T09:55:07.390Z,10.43
2019-03-31T09:57:37.470Z,9.23
2019-03-31T10:00:13.884Z,7.97
2019-03-31T10:02:43.542Z,9.13
2019-03-31T10:05:13.489Z,6.73
2019-03-31T10:07:43.174Z,9.17
2019-03-31T10:10:30.412Z,5.77
2019-03-31T10:13:00.270Z,6.13
2019-03-31T10:15:29.918Z,10.13
2019-03-31T10:17:59.655Z,8.40
2019-03-31T10:20:31.431Z,8.07
2019-03-31T10:23:04.655Z,10.47
2019-03-31T10:25:37.224Z,10.73
2019-03-31T10:28:09.843Z,6.27
2019-03-31T10:30:40.083Z,8.07
2019-03-31T10:33:09.854Z,7.20
2019-03-31T10:35:42.865Z,6.97
2019-03-31T10:38:12.820Z,7.97
2019-03-31T10:40:45.641Z,16.20
2019-03-31T10:43:15.297Z,7.10
2019-03-31T10:45:45.603Z,7.27
2019-03-31T10:48:20.615Z,6.27
2019-03-31T10:50:50.748Z,7.93
2019-03-31T10:53:20.472Z,8.93
2019-03-31T10:55:50.211Z,13.10
2019-03-31T10:58:21.254Z,9.40
2019-03-31T11:00:50.950Z,12.30
2019-03-31T11:03:20.637Z,17.47
2019-03-31T11:05:50.368Z,6.93
2019-03-31T11:08:20.746Z,6.97
2019-03-31T11:10:50.814Z,12.03
2019-03-31T11:13:25.182Z,5.43
2019-03-31T11:15:57.598Z,14.00
2019-03-31T11:18:27.854Z,8.20
2019-03-31T11:20:59.410Z,16.17
2019-03-31T11:23:30.595Z,9.50
2019-03-31T11:26:00.447Z,8.67
2019-03-31T11:28:30.147Z,8.10
2019-03-31T11:30:59.894Z,11.27
2019-03-31T11:33:31.457Z,13.33
2019-03-31T11:36:01.119Z,11.90
2019-03-31T11:38:31.051Z,12.87
2019-03-31T11:41:00.723Z,10.77
2019-03-31T11:43:30.427Z,12.13
2019-03-31T11:46:00.130Z,8.87
2019-03-31T11:48:29.841Z,13.60
2019-03-31T11:51:00.521Z,11.93
2019-03-31T11:53:31.052Z,12.30
2019-03-31T11:56:00.719Z,11.57
2019-03-31T11:58:32.225Z,14.03
2019-03-31T12:01:02.597Z,12.10
2019-03-31T12:03:32.312Z,11.23
2019-03-31T12:06:01.966Z,12.27
2019-03-31T12:08:31.722Z,9.83
2019-03-31T12:11:01.752Z,17.27
2019-03-31T12:13:31.348Z,11.30
2019-03-31T12:16:02.661Z,12.63
2019-03-31T12:18:32.331Z,12.67
2019-03-31T12:21:02.008Z,13.23
2019-03-31T12:23:32.146Z,14.53
2019-03-31T12:26:02.428Z,15.23
2019-03-31T12:28:33.816Z,11.70
2019-03-31T12:31:05.349Z,15.30
2019-03-31T12:33:35.300Z,11.47
2019-03-31T12:36:07.365Z,9.40
2019-03-31T12:38:37.078Z,11.13
2019-03-31T12:41:06.766Z,13.03
2019-03-31T12:43:43.879Z,18.03
2019-03-31T12:46:13.558Z,12.40
2019-03-31T12:48:47.209Z,14.87
2019-03-31T12:51:17.292Z,12.47
2019-03-31T12:53:51.070Z,16.90
2019-03-31T12:56:20.988Z,9.93
2019-03-31T12:58:51.910Z,12.50
2019-03-31T13:01:21.578Z,15.17
2019-03-31T13:03:51.377Z,12.40
2019-03-31T13:06:23.604Z,10.87
2019-03-31T13:08:53.310Z,17.10
2019-03-31T13:11:22.973Z,15.30
2019-03-31T13:13:52.682Z,10.10
2019-03-31T13:16:22.393Z,14.13
2019-03-31T13:18:52.296Z,17.70
2019-03-31T13:21:21.959Z,13.87
2019-03-31T13:23:54.128Z,15.30
2019-03-31T13:26:24.144Z,8.57
2019-03-31T13:28:54.310Z,13.07
2019-03-31T13:31:24.023Z,15.07
2019-03-31T13:33:53.792Z,10.57
2019-03-31T13:36:23.563Z,9.57
2019-03-31T13:38:53.300Z,10.53
2019-03-31T13:41:22.955Z,16.03
2019-03-31T13:43:52.677Z,12.83
2019-03-31T13:46:45.352Z,14.20
2019-03-31T13:49:17.120Z,10.57
2019-03-31T13:51:47.068Z,15.93
2019-03-31T13:54:16.732Z,12.93
2019-03-31T13:56:48.856Z,17.43
2019-03-31T13:59:17.834Z,11.87
2019-03-31T14:01:47.751Z,13.00
2019-03-31T14:04:21.320Z,13.83
2019-03-31T14:06:51.092Z,13.43
2019-03-31T14:09:23.409Z,11.90
2019-03-31T14:11:56.575Z,15.93
2019-03-31T14:14:27.377Z,12.27
2019-03-31T14:16:57.077Z,8.87
2019-03-31T14:19:26.916Z,16.97
2019-03-31T14:21:58.836Z,14.17
2019-03-31T14:24:28.504Z,24.27
2019-03-31T14:26:58.191Z,14.70
2019-03-31T14:29:30.034Z,9.63
2019-03-31T14:32:01.379Z,13.30
2019-03-31T14:34:31.497Z,16.93
2019-03-31T14:37:05.963Z,17.13
2019-03-31T14:39:36.885Z,9.97
2019-03-31T14:42:06.559Z,19.13
2019-03-31T14:44:36.404Z,15.30
2019-03-31T14:47:07.649Z,14.80
2019-03-31T14:49:37.339Z,12.43
2019-03-31T14:52:07.405Z,11.63
2019-03-31T14:54:41.779Z,11.33
2019-03-31T14:57:11.701Z,13.63
2019-03-31T14:59:43.628Z,16.37
2019-03-31T15:02:13.790Z,7.60
2019-03-31T15:04:44.866Z,14.57
2019-03-31T15:07:16.450Z,10.97
2019-03-31T15:09:46.384Z,14.03
2019-03-31T15:12:16.128Z,11.60
2019-03-31T15:14:45.792Z,12.97
2019-03-31T15:17:16.584Z,11.50
2019-03-31T15:19:46.302Z,12.40
2019-03-31T15:22:18.320Z,14.67
2019-03-31T15:24:50.920Z,10.07
2019-03-31T15:27:20.594Z,16.93
2019-03-31T15:29:50.227Z,16.63
2019-03-31T15:32:20.172Z,16.37
2019-03-31T15:34:50.048Z,7.20
2019-03-31T15:37:19.609Z,9.97
2019-03-31T15:39:49.312Z,11.43
2019-03-31T15:42:21.981Z,10.90
2019-03-31T15:44:52.087Z,12.63
2019-03-31T15:47:21.829Z,17.53
2019-03-31T15:49:53.963Z,11.00
2019-03-31T15:52:28.641Z,11.87
2019-03-31T15:55:10.208Z,12.27
2019-03-31T15:57:45.195Z,15.77
2019-03-31T16:00:15.613Z,12.53
2019-03-31T16:02:45.762Z,13.03
2019-03-31T16:05:16.396Z,10.13
2019-03-31T16:07:46.886Z,13.33
2019-03-31T16:10:20.924Z,11.90
2019-03-31T16:12:50.618Z,11.33
2019-03-31T16:15:20.456Z,17.53
2019-03-31T16:17:54.696Z,13.63
2019-03-31T16:20:23.693Z,14.23
2019-03-31T16:22:55.057Z,13.10
2019-03-31T16:25:33.123Z,17.57
2019-03-31T16:28:02.747Z,13.83
2019-03-31T16:30:33.914Z,11.30
2019-03-31T16:33:06.630Z,13.67
2019-03-31T16:35:34.073Z,14.03
2019-03-31T16:38:03.871Z,13.33
2019-03-31T16:40:33.305Z,13.47
2019-03-31T16:43:08.409Z,7.60
2019-03-31T16:45:41.507Z,15.17
2019-03-31T16:48:11.102Z,10.23
2019-03-31T16:50:42.788Z,11.43
2019-03-31T16:53:12.030Z,12.33
2019-03-31T16:55:43.179Z,18.87
2019-03-31T16:58:12.363Z,12.30
2019-03-31T17:00:45.012Z,16.80
2019-03-31T17:03:14.110Z,14.27
2019-03-31T17:05:43.208Z,12.47
2019-03-31T17:08:12.457Z,10.80
2019-03-31T17:10:42.970Z,15.43
2019-03-31T17:13:12.090Z,12.37
2019-03-31T17:15:42.233Z,12.73
2019-03-31T17:18:11.351Z,10.57
2019-03-31T17:20:40.920Z,18.00
2019-03-31T17:23:10.187Z,16.43
2019-03-31T17:25:39.420Z,12.60
2019-03-31T17:28:10.322Z,19.07
2019-03-31T17:30:44.008Z,12.60
2019-03-31T17:33:13.044Z,11.83
2019-03-31T17:35:43.595Z,9.97
2019-03-31T17:38:12.742Z,9.83
2019-03-31T17:40:44.185Z,10.90
2019-03-31T17:43:13.322Z,9.87
2019-03-31T17:45:42.762Z,13.63
2019-03-31T17:48:11.901Z,13.80
2019-03-31T17:50:41.634Z,12.33
2019-03-31T17:53:13.557Z,18.53
2019-03-31T17:55:42.682Z,11.10
2019-03-31T17:58:11.935Z,17.33
2019-03-31T18:00:43.641Z,11.80
2019-03-31T18:03:15.569Z,13.70
2019-03-31T18:05:46.359Z,9.27
2019-03-31T18:08:15.537Z,10.97
2019-03-31T18:10:44.665Z,9.83
2019-03-31T18:13:14.964Z,11.70
2019-03-31T18:15:45.849Z,12.23
2019-03-31T18:18:15.013Z,9.83
2019-03-31T18:20:44.457Z,14.27
2019-03-31T18:23:13.893Z,11.93
2019-03-31T18:25:46.224Z,14.97
2019-03-31T18:28:15.439Z,12.93
2019-03-31T18:30:44.454Z,13.43
2019-03-31T18:33:14.580Z,6.03
2019-03-31T18:35:43.720Z,13.43
2019-03-31T18:38:12.828Z,14.90
2019-03-31T18:40:42.442Z,8.47
2019-03-31T18:43:13.648Z,12.20
2019-03-31T18:45:44.410Z,10.40
2019-03-31T18:48:16.200Z,8.87
2019-03-31T18:50:45.433Z,10.93
2019-03-31T18:53:19.974Z,14.87
2019-03-31T18:56:09.364Z,12.83
2019-03-31T18:58:54.250Z,9.03
2019-03-31T19:01:52.316Z,12.10
2019-03-31T19:04:40.990Z,13.83
2019-03-31T19:07:36.512Z,10.53
2019-03-31T19:10:28.223Z,7.30
2019-03-31T19:13:25.790Z,13.20
2019-03-31T19:16:13.995Z,10.30
2019-03-31T19:19:02.193Z,18.40
2019-03-31T19:21:48.350Z,13.70
2019-03-31T19:24:33.351Z,16.70
2019-03-31T19:27:19.601Z,18.93
2019-03-31T19:30:16.769Z,11.10
2019-03-31T19:33:05.035Z,13.00
2019-03-31T19:35:51.865Z,10.07
2019-03-31T19:38:38.883Z,12.83
2019-03-31T19:41:20.562Z,12.03
2019-03-31T19:44:04.251Z,10.07
2019-03-31T19:46:41.539Z,15.73
2019-03-31T19:49:32.108Z,11.93
2019-03-31T19:52:29.829Z,13.43
2019-03-31T19:55:14.912Z,10.30
2019-03-31T19:58:01.992Z,11.60
2019-03-31T20:01:06.956Z,14.23
2019-03-31T20:03:55.148Z,10.97
2019-03-31T20:06:41.259Z,12.33
2019-03-31T20:09:22.874Z,6.43
2019-03-31T20:12:02.976Z,15.37
2019-03-31T20:14:50.522Z,6.37
2019-03-31T20:17:40.056Z,14.13
2019-03-31T20:20:38.652Z,11.87
2019-03-31T20:23:29.849Z,10.07
2019-03-31T20:26:18.079Z,7.97
2019-03-31T20:29:16.419Z,10.60
2019-03-31T20:32:10.373Z,9.10
2019-03-31T20:34:53.852Z,15.83
2019-03-31T20:37:57.326Z,9.33
2019-03-31T20:40:32.267Z,14.47
2019-03-31T20:43:13.997Z,9.03
2019-03-31T20:45:43.244Z,12.60
2019-03-31T20:48:12.366Z,10.67
2019-03-31T20:50:41.540Z,14.13
2019-03-31T20:53:10.750Z,12.10
2019-03-31T20:55:41.632Z,9.60
2019-03-31T20:58:15.234Z,8.93
2019-03-31T21:00:46.185Z,8.53
2019-03-31T21:03:15.308Z,14.23
2019-03-31T21:05:46.293Z,14.10
2019-03-31T21:08:15.592Z,23.00
2019-03-31T21:10:56.223Z,11.97
2019-03-31T21:13:25.396Z,14.23
2019-03-31T21:15:54.605Z,6.00
2019-03-31T21:18:23.674Z,17.50
2019-03-31T21:20:53.851Z,10.57
2019-03-31T21:23:23.046Z,15.70
2019-03-31T21:25:54.230Z,7.97
2019-03-31T21:28:39.551Z,10.50
2019-03-31T21:31:10.841Z,13.10
2019-03-31T21:33:39.948Z,13.50
2019-03-31T21:36:11.521Z,13.30
2019-03-31T21:38:40.699Z,13.00
2019-03-31T21:41:10.025Z,12.73
2019-03-31T21:43:39.305Z,11.13
2019-03-31T21:46:08.433Z,15.37
2019-03-31T21:48:38.109Z,8.07
2019-03-31T21:51:08.954Z,11.47
2019-03-31T21:53:38.096Z,12.17
2019-03-31T21:56:07.320Z,13.10
2019-03-31T21:58:36.523Z,13.60
2019-03-31T22:01:05.815Z,12.23
2019-03-31T22:03:39.516Z,10.70
2019-03-31T22:06:09.876Z,10.10
2019-03-31T22:08:40.146Z,17.10
2019-03-31T22:11:09.260Z,13.33
2019-03-31T22:13:39.500Z,12.07
2019-03-31T22:16:10.737Z,13.80
2019-03-31T22:18:41.850Z,6.27
2019-03-31T22:21:12.707Z,12.80
2019-03-31T22:23:57.363Z,17.70
2019-03-31T22:26:19.883Z,14.43
2019-03-31T22:28:51.655Z,19.70
2019-03-31T22:31:20.890Z,17.37
2019-03-31T22:33:50.492Z,16.03
2019-03-31T22:36:23.552Z,11.97
2019-03-31T22:38:53.264Z,12.03
2019-03-31T22:41:24.260Z,15.23
2019-03-31T22:43:53.355Z,17.67
2019-03-31T22:46:24.778Z,14.37
2019-03-31T22:48:57.565Z,17.17
2019-03-31T22:51:26.659Z,10.33
2019-03-31T22:53:55.919Z,17.33
2019-03-31T22:56:25.156Z,18.20
2019-03-31T22:58:54.265Z,14.00
2019-03-31T23:01:23.365Z,17.43
2019-03-31T23:03:52.899Z,14.47
2019-03-31T23:06:22.072Z,15.10
2019-03-31T23:08:51.188Z,17.20
2019-03-31T23:11:20.270Z,13.03
2019-03-31T23:13:50.988Z,14.60
2019-03-31T23:16:22.245Z,16.33
2019-03-31T23:18:53.995Z,14.00
2019-03-31T23:21:24.054Z,14.00
2019-03-31T23:23:53.198Z,18.60
2019-03-31T23:26:22.406Z,14.90
2019-03-31T23:28:53.908Z,13.97
2019-03-31T23:31:42.885Z,7.27
2019-03-31T23:34:14.706Z,11.90
2019-03-31T23:36:48.391Z,18.90
2019-03-31T23:39:17.586Z,22.73
2019-03-31T23:41:48.886Z,17.43
2019-03-31T23:44:18.517Z,18.70
2019-03-31T23:46:48.033Z,11.10
2019-03-31T23:49:18.507Z,20.87
2019-03-31T23:51:47.614Z,23.73
2019-03-31T23:54:16.971Z,13.30
2019-03-31T23:56:46.055Z,12.37
2019-03-31T23:59:16.549Z,14.40
